Time;durP1;ratioP1;P1;durP2;ratioP2;P2;SDS_P1;SDS_P2;PMS_P1;PMS_P2;Temp;Humidity;BMP_temperature;BMP_pressure;BME280_temperature;BME280_humidity;BME280_pressure;Samples;Min_cycle;Max_cycle;Signal;HPM_P1;HPM_P2
2023/06/25 00:00:29;;;;;;;9.52;5.72;;;18.60;99.90;;;;;;4974119;28;20082;-85
2023/06/25 00:02:55;;;;;;;7.30;5.32;;;18.60;99.90;;;;;;4975106;28;20137;-85
2023/06/25 00:05:21;;;;;;;8.32;5.80;;;18.60;99.90;;;;;;4975296;28;20043;-87
2023/06/25 00:07:47;;;;;;;8.93;5.65;;;18.60;99.90;;;;;;4974703;28;20047;-85
2023/06/25 00:10:12;;;;;;;7.72;5.38;;;18.50;99.90;;;;;;4975737;28;20348;-86
2023/06/25 00:12:38;;;;;;;11.57;5.90;;;18.50;99.90;;;;;;4975327;28;20042;-85
2023/06/25 00:15:05;;;;;;;8.88;5.50;;;18.50;99.90;;;;;;4974883;28;20126;-85
2023/06/25 00:17:30;;;;;;;6.82;5.13;;;18.40;99.90;;;;;;4974933;28;20046;-85
2023/06/25 00:19:57;;;;;;;9.70;5.53;;;18.40;99.90;;;;;;4973715;28;20057;-85
2023/06/25 00:22:23;;;;;;;7.78;5.55;;;18.40;99.90;;;;;;4974074;28;20120;-86
2023/06/25 00:24:50;;;;;;;9.13;5.90;;;18.40;99.90;;;;;;4973276;28;20407;-85
2023/06/25 00:27:16;;;;;;;8.65;6.35;;;18.30;99.90;;;;;;4974442;28;20070;-85
2023/06/25 00:29:43;;;;;;;8.98;5.93;;;18.20;99.90;;;;;;4974089;28;20098;-85
2023/06/25 00:32:08;;;;;;;7.60;5.43;;;18.20;99.90;;;;;;4974804;28;20496;-86
2023/06/25 00:34:40;;;;;;;10.10;6.18;;;18.20;99.90;;;;;;4974771;28;20050;-85
2023/06/25 00:37:19;;;;;;;8.48;5.95;;;18.10;99.90;;;;;;4974774;28;20047;-85
2023/06/25 00:39:46;;;;;;;8.35;5.80;;;18.00;99.90;;;;;;4957946;28;20046;-85
2023/06/25 00:42:13;;;;;;;8.88;6.03;;;17.90;99.90;;;;;;4974347;28;20416;-86
2023/06/25 00:44:40;;;;;;;8.55;5.93;;;17.90;99.90;;;;;;4975445;28;20387;-85
2023/06/25 00:47:12;;;;;;;9.70;6.75;;;17.90;99.90;;;;;;4974600;28;20049;-85
2023/06/25 00:49:39;;;;;;;8.32;6.45;;;17.80;99.90;;;;;;4974883;28;20487;-86
2023/06/25 00:52:08;;;;;;;8.15;6.10;;;17.80;99.90;;;;;;4973584;28;20057;-85
2023/06/25 00:54:39;;;;;;;10.25;6.20;;;17.80;99.90;;;;;;4974459;28;20471;-84
2023/06/25 00:57:06;;;;;;;7.43;5.95;;;17.70;99.90;;;;;;4974842;28;20373;-86
2023/06/25 00:59:35;;;;;;;9.10;6.65;;;17.80;99.90;;;;;;4974523;28;20097;-85
2023/06/25 01:02:27;;;;;;;9.07;6.25;;;17.70;99.90;;;;;;4974505;28;20051;-86
2023/06/25 01:05:12;;;;;;;9.93;6.32;;;17.70;99.90;;;;;;4960521;28;20070;-85
2023/06/25 01:07:43;;;;;;;9.23;6.30;;;17.70;99.90;;;;;;4973197;28;20051;-86
2023/06/25 01:10:13;;;;;;;8.75;6.50;;;17.70;99.90;;;;;;4973778;28;20054;-86
2023/06/25 01:12:42;;;;;;;11.85;6.22;;;17.60;99.90;;;;;;4974611;28;20502;-83
2023/06/25 01:15:09;;;;;;;10.20;7.20;;;17.60;99.90;;;;;;4975150;28;20054;-85
2023/06/25 01:17:36;;;;;;;9.90;6.70;;;17.60;99.90;;;;;;4975162;28;20437;-86
2023/06/25 01:20:05;;;;;;;11.88;6.75;;;17.50;99.90;;;;;;4977986;28;20114;-86
2023/06/25 01:22:32;;;;;;;10.68;7.13;;;17.60;99.90;;;;;;4977938;28;20051;-85
2023/06/25 01:24:58;;;;;;;9.80;6.63;;;17.60;99.90;;;;;;4977845;28;20062;-86
2023/06/25 01:27:24;;;;;;;8.85;6.50;;;17.50;99.90;;;;;;4976824;28;20496;-84
2023/06/25 01:29:50;;;;;;;10.05;6.70;;;17.50;99.90;;;;;;4977659;28;20082;-86
2023/06/25 01:32:18;;;;;;;10.75;7.40;;;17.50;99.90;;;;;;4977777;28;20046;-83
2023/06/25 01:34:45;;;;;;;10.38;7.75;;;17.50;99.90;;;;;;4976798;28;20072;-84
2023/06/25 01:37:11;;;;;;;9.60;7.05;;;17.50;99.90;;;;;;4978194;28;20049;-85
2023/06/25 01:39:37;;;;;;;9.13;6.57;;;17.50;99.90;;;;;;4976669;28;20054;-85
2023/06/25 01:42:04;;;;;;;10.57;7.22;;;17.50;99.90;;;;;;4977515;28;20094;-85
2023/06/25 01:44:31;;;;;;;9.98;7.28;;;17.50;99.90;;;;;;4977786;28;20578;-85
2023/06/25 01:46:58;;;;;;;10.20;7.22;;;17.50;99.90;;;;;;4977292;28;20046;-82
2023/06/25 01:49:25;;;;;;;10.20;6.75;;;17.50;99.90;;;;;;4977484;28;20133;-85
2023/06/25 01:51:51;;;;;;;10.70;7.55;;;17.50;99.90;;;;;;4977351;28;20053;-86
2023/06/25 01:54:16;;;;;;;9.90;7.32;;;17.50;99.90;;;;;;4976327;28;20069;-86
2023/06/25 01:56:42;;;;;;;10.45;7.22;;;17.50;99.90;;;;;;4977269;28;20035;-86
2023/06/25 01:59:09;;;;;;;9.27;6.78;;;17.40;99.90;;;;;;4977821;28;20531;-80
2023/06/25 02:01:35;;;;;;;9.55;6.70;;;17.40;99.90;;;;;;4977214;28;20054;-86
2023/06/25 02:04:00;;;;;;;12.32;7.05;;;17.40;99.90;;;;;;4976991;28;20371;-85
2023/06/25 02:06:26;;;;;;;11.93;7.25;;;17.30;99.90;;;;;;4976974;28;20396;-85
2023/06/25 02:08:52;;;;;;;10.57;7.10;;;17.30;99.90;;;;;;4977113;28;20058;-85
2023/06/25 02:11:17;;;;;;;11.23;7.05;;;17.30;99.90;;;;;;4977397;28;20062;-86
2023/06/25 02:13:43;;;;;;;10.18;7.28;;;17.20;99.90;;;;;;4976733;28;20047;-87
2023/06/25 02:16:09;;;;;;;11.38;7.70;;;17.20;99.90;;;;;;4976949;28;20089;-84
2023/06/25 02:18:35;;;;;;;11.43;7.57;;;17.20;99.90;;;;;;4977447;28;20442;-86
2023/06/25 02:21:01;;;;;;;9.50;7.03;;;17.20;99.90;;;;;;4976927;28;20499;-85
2023/06/25 02:23:26;;;;;;;11.25;7.63;;;17.10;99.90;;;;;;4976796;28;20093;-85
2023/06/25 02:25:52;;;;;;;10.35;7.97;;;17.10;99.90;;;;;;4976862;28;20391;-84
2023/06/25 02:28:18;;;;;;;10.85;7.50;;;17.00;99.90;;;;;;4975633;28;20057;-85
2023/06/25 02:30:44;;;;;;;11.32;7.63;;;17.10;99.90;;;;;;4976719;28;20530;-86
2023/06/25 02:33:10;;;;;;;11.25;7.60;;;17.10;99.90;;;;;;4977094;28;20042;-86
2023/06/25 02:35:36;;;;;;;12.15;7.70;;;17.00;99.90;;;;;;4976619;28;20050;-85
2023/06/25 02:38:02;;;;;;;14.60;8.30;;;17.00;99.90;;;;;;4976439;28;20049;-84
2023/06/25 02:40:28;;;;;;;11.48;7.80;;;17.00;99.90;;;;;;4977334;28;20059;-85
2023/06/25 02:42:54;;;;;;;13.13;8.45;;;16.90;99.90;;;;;;4976493;28;20081;-85
2023/06/25 02:45:20;;;;;;;11.13;7.40;;;17.00;99.90;;;;;;4977240;28;20050;-84
2023/06/25 02:47:46;;;;;;;10.65;8.00;;;17.00;99.90;;;;;;4976400;28;20050;-85
2023/06/25 02:50:12;;;;;;;10.13;7.00;;;17.00;99.90;;;;;;4976375;28;20038;-85
2023/06/25 02:52:37;;;;;;;11.40;7.57;;;17.00;99.90;;;;;;4976291;28;20068;-85
2023/06/25 02:55:04;;;;;;;10.82;7.72;;;16.90;99.90;;;;;;4944003;28;20058;-85
2023/06/25 02:57:29;;;;;;;15.93;8.23;;;16.90;99.90;;;;;;4976223;28;20113;-84
2023/06/25 02:59:56;;;;;;;13.13;8.57;;;16.90;99.90;;;;;;4976698;28;20471;-86
2023/06/25 03:02:22;;;;;;;11.30;7.38;;;16.90;99.90;;;;;;4976051;28;20051;-86
2023/06/25 03:04:47;;;;;;;11.27;7.93;;;16.80;99.90;;;;;;4975954;28;20133;-85
2023/06/25 03:07:13;;;;;;;10.98;7.40;;;16.80;99.90;;;;;;4975876;28;20041;-86
2023/06/25 03:09:39;;;;;;;11.88;8.60;;;16.80;99.90;;;;;;4976098;28;20039;-85
2023/06/25 03:12:05;;;;;;;12.88;7.70;;;16.80;99.90;;;;;;4975141;28;20443;-84
2023/06/25 03:14:31;;;;;;;12.63;7.65;;;16.80;99.90;;;;;;4974616;28;20126;-86
2023/06/25 03:16:56;;;;;;;12.18;8.30;;;16.80;99.90;;;;;;4975610;28;20082;-85
2023/06/25 03:19:22;;;;;;;12.25;8.05;;;16.70;99.90;;;;;;4975722;28;20050;-86
2023/06/25 03:21:48;;;;;;;11.50;8.30;;;16.70;99.90;;;;;;4959309;28;20058;-85
2023/06/25 03:24:14;;;;;;;11.88;8.52;;;16.80;99.90;;;;;;4975254;28;20094;-86
2023/06/25 03:26:40;;;;;;;12.43;8.55;;;16.80;99.90;;;;;;4974605;28;20051;-84
2023/06/25 03:29:06;;;;;;;11.30;8.23;;;16.80;99.90;;;;;;4974437;28;20117;-86
2023/06/25 03:31:31;;;;;;;13.77;9.07;;;16.80;99.90;;;;;;4975402;28;20086;-86
2023/06/25 03:33:57;;;;;;;11.90;7.93;;;16.80;99.90;;;;;;4975926;28;20050;-86
2023/06/25 03:36:23;;;;;;;12.20;8.63;;;16.80;99.90;;;;;;4975186;28;20049;-84
2023/06/25 03:38:48;;;;;;;13.00;8.80;;;16.80;99.90;;;;;;4975242;28;20058;-85
2023/06/25 03:41:14;;;;;;;14.55;9.10;;;16.80;99.90;;;;;;4975233;28;20047;-86
2023/06/25 03:43:40;;;;;;;15.35;9.18;;;16.80;99.90;;;;;;4975297;28;20104;-86
2023/06/25 03:46:05;;;;;;;13.90;9.38;;;16.90;99.90;;;;;;4975219;28;20043;-84
2023/06/25 03:48:31;;;;;;;13.85;9.10;;;16.80;99.90;;;;;;4975815;28;20093;-85
2023/06/25 03:50:57;;;;;;;14.20;9.18;;;16.90;99.90;;;;;;4974269;28;20511;-85
2023/06/25 03:53:26;;;;;;;13.18;8.90;;;16.90;99.90;;;;;;4975189;28;20043;-85
2023/06/25 03:55:52;;;;;;;11.50;8.20;;;16.90;99.90;;;;;;4975263;28;20170;-86
2023/06/25 03:58:18;;;;;;;16.02;9.10;;;16.90;99.90;;;;;;4958870;28;20491;-86
2023/06/25 04:00:44;;;;;;;11.65;9.20;;;16.90;99.90;;;;;;4975674;28;20043;-84
2023/06/25 04:03:10;;;;;;;13.85;9.60;;;16.90;99.90;;;;;;4974079;28;20514;-86
2023/06/25 04:05:36;;;;;;;14.15;9.02;;;17.00;99.90;;;;;;4974994;28;20043;-86
2023/06/25 04:08:02;;;;;;;14.13;9.38;;;17.00;99.90;;;;;;4973961;28;20046;-84
2023/06/25 04:10:28;;;;;;;14.10;9.55;;;17.00;99.90;;;;;;4974939;28;20050;-82
2023/06/25 04:12:54;;;;;;;13.93;9.57;;;17.00;99.90;;;;;;4973772;28;20054;-85
2023/06/25 04:15:20;;;;;;;14.45;9.98;;;17.00;99.90;;;;;;4973958;28;20047;-85
2023/06/25 04:17:47;;;;;;;13.40;9.73;;;17.00;99.90;;;;;;4974027;28;20061;-86
2023/06/25 04:20:13;;;;;;;14.30;9.18;;;17.10;99.90;;;;;;4975450;28;20061;-84
2023/06/25 04:22:39;;;;;;;16.17;10.00;;;17.10;99.90;;;;;;4975050;28;20097;-86
2023/06/25 04:25:05;;;;;;;11.90;8.55;;;17.10;99.90;;;;;;4973402;28;20055;-86
2023/06/25 04:27:31;;;;;;;13.63;9.75;;;17.20;99.90;;;;;;4974679;28;20051;-85
2023/06/25 04:29:56;;;;;;;12.23;8.15;;;17.20;99.90;;;;;;4974804;28;20059;-86
2023/06/25 04:32:22;;;;;;;12.63;9.35;;;17.20;99.90;;;;;;4973448;28;20373;-85
2023/06/25 04:34:48;;;;;;;11.20;9.07;;;17.30;99.90;;;;;;4973768;28;20082;-85
2023/06/25 04:37:13;;;;;;;13.15;9.52;;;17.30;99.90;;;;;;4974018;28;20061;-84
2023/06/25 04:39:40;;;;;;;12.30;8.45;;;17.40;99.90;;;;;;4973733;28;20051;-86
2023/06/25 04:42:06;;;;;;;13.60;9.43;;;17.40;99.90;;;;;;4974663;28;20385;-85
2023/06/25 04:44:32;;;;;;;12.32;9.25;;;17.50;99.90;;;;;;4973538;28;20082;-86
2023/06/25 04:46:58;;;;;;;12.18;8.38;;;17.60;99.90;;;;;;4973854;28;20514;-86
2023/06/25 04:49:23;;;;;;;14.43;9.65;;;17.60;99.90;;;;;;4974582;28;20043;-85
2023/06/25 04:51:50;;;;;;;12.75;9.00;;;17.70;99.90;;;;;;4974510;28;20042;-87
2023/06/25 04:54:15;;;;;;;11.43;8.73;;;17.70;99.90;;;;;;4976409;28;20134;-85
2023/06/25 04:56:41;;;;;;;14.18;9.18;;;17.80;99.90;;;;;;4978691;28;20519;-86
2023/06/25 04:59:07;;;;;;;11.85;8.90;;;17.90;99.90;;;;;;4978201;28;20097;-86
2023/06/25 05:01:32;;;;;;;11.38;8.57;;;17.90;99.90;;;;;;4979289;28;20046;-87
2023/06/25 05:03:59;;;;;;;11.38;8.68;;;18.00;99.90;;;;;;4977191;28;20047;-87
2023/06/25 05:06:25;;;;;;;12.23;8.68;;;18.10;99.90;;;;;;4978446;28;20094;-86
2023/06/25 05:08:50;;;;;;;11.43;8.63;;;18.20;99.90;;;;;;4978612;28;20055;-86
2023/06/25 05:11:16;;;;;;;11.50;7.75;;;18.30;99.90;;;;;;4978186;28;20484;-85
2023/06/25 05:13:42;;;;;;;13.20;9.02;;;18.30;99.90;;;;;;4977900;28;20139;-84
2023/06/25 05:16:08;;;;;;;12.13;9.18;;;18.40;99.90;;;;;;4976786;28;20050;-86
2023/06/25 05:18:33;;;;;;;12.85;8.80;;;18.50;99.90;;;;;;4978084;28;20396;-87
2023/06/25 05:20:59;;;;;;;11.77;8.73;;;18.60;99.90;;;;;;4977881;28;20047;-86
2023/06/25 05:23:25;;;;;;;11.52;9.00;;;18.70;99.90;;;;;;4978418;28;20089;-86
2023/06/25 05:25:51;;;;;;;13.20;8.95;;;18.70;99.90;;;;;;4978014;28;20059;-85
2023/06/25 05:28:17;;;;;;;13.07;8.77;;;18.80;99.90;;;;;;4977717;28;20051;-87
2023/06/25 05:30:43;;;;;;;11.70;8.18;;;18.90;99.90;;;;;;4977745;28;20130;-84
2023/06/25 05:33:09;;;;;;;12.95;8.38;;;19.00;99.90;;;;;;4976481;28;20086;-85
2023/06/25 05:35:34;;;;;;;12.15;8.18;;;19.20;99.90;;;;;;4978161;28;20043;-84
2023/06/25 05:38:00;;;;;;;11.15;8.07;;;19.20;99.90;;;;;;4978212;28;20391;-86
2023/06/25 05:40:29;;;;;;;15.73;9.10;;;19.30;99.90;;;;;;4976517;28;20102;-85
2023/06/25 05:42:55;;;;;;;11.55;7.60;;;19.40;99.90;;;;;;4977497;28;20086;-85
2023/06/25 05:45:21;;;;;;;13.05;7.50;;;19.50;99.90;;;;;;4977603;28;20055;-86
2023/06/25 05:47:47;;;;;;;12.00;8.00;;;19.60;99.90;;;;;;4976558;28;20061;-85
2023/06/25 05:50:13;;;;;;;12.10;7.85;;;19.70;99.90;;;;;;4977931;28;20125;-84
2023/06/25 05:52:42;;;;;;;10.88;7.88;;;19.70;99.90;;;;;;4976510;28;20059;-69
2023/06/25 05:55:07;;;;;;;11.18;7.82;;;19.80;99.90;;;;;;4977723;28;20054;-69
2023/06/25 05:57:33;;;;;;;10.98;7.93;;;19.90;99.90;;;;;;4978035;28;20070;-69
2023/06/25 05:59:59;;;;;;;10.30;7.68;;;19.90;99.90;;;;;;4977668;28;20082;-69
2023/06/25 06:02:25;;;;;;;10.93;8.45;;;20.00;99.90;;;;;;4977116;28;20442;-70
2023/06/25 06:04:50;;;;;;;11.35;8.38;;;20.10;99.90;;;;;;4976484;28;20054;-69
2023/06/25 06:07:16;;;;;;;11.07;8.43;;;20.20;99.90;;;;;;4977484;28;20054;-70
2023/06/25 06:09:42;;;;;;;11.68;8.18;;;20.30;99.90;;;;;;4977659;28;20057;-69
2023/06/25 06:12:08;;;;;;;10.70;8.52;;;20.30;99.90;;;;;;4977065;28;20399;-69
2023/06/25 06:14:34;;;;;;;11.65;8.63;;;20.40;99.90;;;;;;4977017;28;20046;-69
2023/06/25 06:17:00;;;;;;;12.27;9.05;;;20.50;99.90;;;;;;4977474;28;20051;-69
2023/06/25 06:19:26;;;;;;;11.25;8.45;;;20.60;99.90;;;;;;4976921;28;20170;-70
2023/06/25 06:21:51;;;;;;;11.73;8.60;;;20.70;99.90;;;;;;4976869;28;20050;-69
2023/06/25 06:24:17;;;;;;;11.45;8.50;;;20.80;99.90;;;;;;4976520;28;20054;-70
2023/06/25 06:26:43;;;;;;;11.98;8.82;;;20.80;99.90;;;;;;4975545;28;20051;-70
2023/06/25 06:29:08;;;;;;;11.90;9.10;;;20.90;99.90;;;;;;4976698;28;20050;-69
2023/06/25 06:31:34;;;;;;;12.30;9.57;;;21.00;99.90;;;;;;4976366;28;20051;-69
2023/06/25 06:34:00;;;;;;;12.32;9.15;;;21.10;99.90;;;;;;4975571;28;20587;-69
2023/06/25 06:36:25;;;;;;;13.85;9.80;;;21.20;99.90;;;;;;4976563;28;20041;-69
2023/06/25 06:38:51;;;;;;;12.85;9.05;;;21.20;99.90;;;;;;4976479;28;20133;-69
2023/06/25 06:41:17;;;;;;;13.63;9.25;;;21.30;99.90;;;;;;4976446;28;20129;-70
2023/06/25 06:43:44;;;;;;;12.68;10.57;;;21.50;99.90;;;;;;4976965;28;20466;-70
2023/06/25 06:46:10;;;;;;;11.30;9.50;;;21.50;99.90;;;;;;4976296;28;20054;-70
2023/06/25 06:48:35;;;;;;;11.02;9.45;;;21.60;99.90;;;;;;4976633;28;20047;-70
2023/06/25 06:51:01;;;;;;;12.85;9.90;;;21.60;99.90;;;;;;4975970;28;20042;-70
2023/06/25 06:53:28;;;;;;;13.82;10.20;;;21.70;99.90;;;;;;4976288;28;20137;-69
2023/06/25 06:55:54;;;;;;;13.48;9.70;;;21.90;99.90;;;;;;4976455;28;20051;-70
2023/06/25 06:58:19;;;;;;;11.35;9.75;;;22.00;99.90;;;;;;4976705;28;20365;-70
2023/06/25 07:00:45;;;;;;;12.85;10.00;;;22.10;99.90;;;;;;4976509;28;20384;-70
2023/06/25 07:03:11;;;;;;;12.70;10.20;;;22.20;99.90;;;;;;4976018;28;20492;-69
2023/06/25 07:05:36;;;;;;;13.05;10.20;;;22.30;99.90;;;;;;4976240;28;20468;-70
2023/06/25 07:08:02;;;;;;;14.73;11.30;;;22.40;99.90;;;;;;4975893;28;20039;-70
2023/06/25 07:10:28;;;;;;;11.35;10.13;;;22.50;99.90;;;;;;4975913;28;20053;-70
2023/06/25 07:12:54;;;;;;;13.50;10.70;;;22.60;99.90;;;;;;4976123;28;20042;-70
2023/06/25 07:15:20;;;;;;;13.30;11.15;;;22.70;99.90;;;;;;4974603;28;20137;-70
2023/06/25 07:17:45;;;;;;;11.82;9.70;;;22.80;99.90;;;;;;4975582;28;20101;-70
2023/06/25 07:20:11;;;;;;;12.32;10.07;;;22.80;99.90;;;;;;4975797;28;20392;-70
2023/06/25 07:22:39;;;;;;;12.23;10.27;;;22.90;99.90;;;;;;4975523;28;20472;-71
2023/06/25 07:25:07;;;;;;;14.13;10.32;;;23.00;99.90;;;;;;4975933;28;20062;-70
2023/06/25 07:27:33;;;;;;;13.05;10.40;;;23.10;99.90;;;;;;4976145;28;20043;-70
2023/06/25 07:29:58;;;;;;;13.38;11.30;;;23.20;99.90;;;;;;4975789;28;20054;-70
2023/06/25 07:32:24;;;;;;;13.80;11.25;;;23.30;99.90;;;;;;4974868;28;20046;-70
2023/06/25 07:34:50;;;;;;;12.95;10.60;;;23.40;99.90;;;;;;4975974;28;20446;-70
2023/06/25 07:37:15;;;;;;;12.45;10.70;;;23.40;99.90;;;;;;4974318;28;20054;-71
2023/06/25 07:39:41;;;;;;;12.32;9.95;;;23.60;99.90;;;;;;4975478;28;20050;-70
2023/06/25 07:42:07;;;;;;;12.00;10.60;;;23.60;99.90;;;;;;4975363;28;20133;-70
2023/06/25 07:44:32;;;;;;;12.20;10.43;;;23.70;99.90;;;;;;4975375;28;20054;-70
2023/06/25 07:46:58;;;;;;;12.68;10.63;;;23.80;99.90;;;;;;4975959;28;20038;-70
2023/06/25 07:49:24;;;;;;;12.27;10.98;;;23.90;99.90;;;;;;4975534;28;20043;-71
2023/06/25 07:51:50;;;;;;;11.35;9.80;;;24.10;99.90;;;;;;4958465;28;20428;-70
2023/06/25 07:54:17;;;;;;;12.52;10.18;;;24.10;99.90;;;;;;4975928;28;20053;-71
2023/06/25 07:56:44;;;;;;;12.68;9.60;;;24.30;99.90;;;;;;4974566;28;20488;-70
2023/06/25 07:59:14;;;;;;;11.88;9.90;;;24.40;99.90;;;;;;4974634;28;20112;-68
2023/06/25 08:01:40;;;;;;;11.82;9.50;;;24.40;99.90;;;;;;4975222;28;20108;-69
2023/06/25 08:04:05;;;;;;;10.85;9.18;;;24.40;99.90;;;;;;4975508;28;20086;-69
2023/06/25 08:06:31;;;;;;;11.57;9.43;;;24.50;99.90;;;;;;4973926;28;20542;-68
2023/06/25 08:08:57;;;;;;;10.15;8.50;;;24.70;99.90;;;;;;4974846;28;20054;-69
2023/06/25 08:11:22;;;;;;;12.70;8.68;;;24.70;99.90;;;;;;4973591;28;20115;-69
2023/06/25 08:13:48;;;;;;;10.27;8.38;;;24.80;99.90;;;;;;4974799;28;20047;-69
2023/06/25 08:16:14;;;;;;;9.38;8.40;;;24.90;99.90;;;;;;4974543;28;20046;-68
2023/06/25 08:18:39;;;;;;;10.55;7.95;;;25.10;99.90;;;;;;4973520;28;20046;-68
2023/06/25 08:21:05;;;;;;;11.15;8.27;;;25.20;99.90;;;;;;4975072;28;20086;-68
2023/06/25 08:23:31;;;;;;;11.50;8.68;;;25.30;99.90;;;;;;4973372;28;20051;-69
2023/06/25 08:25:56;;;;;;;9.48;8.15;;;25.40;99.90;;;;;;4974426;28;20507;-69
2023/06/25 08:28:22;;;;;;;9.13;8.07;;;25.50;99.90;;;;;;4973292;28;20130;-69
2023/06/25 08:30:48;;;;;;;9.13;7.05;;;25.70;99.90;;;;;;4974517;28;20054;-69
2023/06/25 08:33:13;;;;;;;9.55;8.23;;;25.80;99.90;;;;;;4973417;28;20043;-69
2023/06/25 08:35:39;;;;;;;8.57;7.68;;;25.90;99.90;;;;;;4975420;28;20107;-70
2023/06/25 08:38:05;;;;;;;8.80;7.40;;;26.00;99.90;;;;;;4975140;28;20367;-69
2023/06/25 08:40:31;;;;;;;9.43;7.38;;;26.10;99.90;;;;;;4974549;28;20185;-69
2023/06/25 08:42:57;;;;;;;7.72;6.38;;;26.10;99.90;;;;;;4974364;28;20133;-69
2023/06/25 08:45:23;;;;;;;8.15;6.80;;;26.20;99.90;;;;;;4975339;28;20047;-69
2023/06/25 08:47:59;;;;;;;6.85;6.15;;;26.30;99.90;;;;;;4973836;28;20480;-70
2023/06/25 08:50:25;;;;;;;7.95;6.55;;;26.40;99.90;;;;;;4974614;28;20157;-69
2023/06/25 08:52:51;;;;;;;7.43;5.20;;;26.60;99.90;;;;;;4974303;28;20057;-69
2023/06/25 08:55:19;;;;;;;6.00;5.38;;;26.60;99.90;;;;;;4974843;28;20054;-69
2023/06/25 08:57:45;;;;;;;9.18;6.10;;;26.60;99.90;;;;;;4973142;28;20467;-69
2023/06/25 09:00:13;;;;;;;5.85;5.05;;;26.70;99.90;;;;;;4974379;28;20047;-69
2023/06/25 09:02:38;;;;;;;6.85;5.60;;;26.80;99.90;;;;;;4974511;28;20093;-69
2023/06/25 09:05:13;;;;;;;6.93;5.97;;;26.90;99.90;;;;;;4973150;28;20086;-69
2023/06/25 09:07:46;;;;;;;6.45;5.15;;;26.90;99.90;;;;;;4974318;28;20043;-69
2023/06/25 09:10:13;;;;;;;5.78;4.80;;;26.90;99.90;;;;;;4974298;28;20043;-69
2023/06/25 09:12:39;;;;;;;6.05;4.10;;;27.00;99.90;;;;;;4973014;28;20483;-69
2023/06/25 09:15:08;;;;;;;6.93;4.55;;;27.10;99.90;;;;;;4974301;28;20086;-69
2023/06/25 09:17:35;;;;;;;5.35;4.13;;;27.10;99.90;;;;;;4974446;28;20365;-69
2023/06/25 09:20:07;;;;;;;4.88;3.83;;;27.20;99.90;;;;;;4974737;28;20050;-68
2023/06/25 09:22:33;;;;;;;5.10;3.65;;;27.40;99.90;;;;;;4974914;28;20054;-68
2023/06/25 09:25:00;;;;;;;4.70;3.85;;;27.50;99.90;;;;;;4972459;28;20402;-68
2023/06/25 09:27:26;;;;;;;5.38;3.70;;;27.60;99.90;;;;;;4974048;28;20205;-67
2023/06/25 09:29:56;;;;;;;4.57;3.22;;;27.60;99.90;;;;;;4973016;28;20134;-68
2023/06/25 09:32:22;;;;;;;4.50;3.40;;;27.70;99.90;;;;;;4974150;28;20047;-67
2023/06/25 09:34:48;;;;;;;4.25;3.20;;;27.80;99.90;;;;;;4974653;28;20094;-68
2023/06/25 09:37:13;;;;;;;5.43;3.50;;;27.80;99.90;;;;;;4974177;28;20098;-68
2023/06/25 09:39:39;;;;;;;3.85;3.25;;;27.80;99.90;;;;;;4975531;28;20050;-67
2023/06/25 09:42:06;;;;;;;4.85;3.45;;;27.90;99.90;;;;;;4977368;28;20047;-68
2023/06/25 09:44:34;;;;;;;4.55;3.83;;;28.00;99.90;;;;;;4978096;28;20109;-67
2023/06/25 09:47:06;;;;;;;4.55;3.50;;;28.10;99.90;;;;;;4977303;28;20043;-68
2023/06/25 09:49:32;;;;;;;5.50;3.72;;;28.30;99.90;;;;;;4977351;28;20049;-67
2023/06/25 09:52:12;;;;;;;4.60;3.38;;;28.50;99.90;;;;;;4977818;28;20053;-68
2023/06/25 09:54:41;;;;;;;5.22;3.65;;;28.60;99.90;;;;;;4977722;28;20185;-67
2023/06/25 09:57:09;;;;;;;5.72;3.13;;;28.60;99.90;;;;;;4977344;28;20043;-67
2023/06/25 09:59:36;;;;;;;5.03;3.83;;;28.60;99.90;;;;;;4977247;28;20046;-67
2023/06/25 10:02:05;;;;;;;5.63;3.47;;;28.70;99.90;;;;;;4977091;28;20090;-67
2023/06/25 10:04:33;;;;;;;4.20;2.85;;;28.80;99.90;;;;;;4976187;28;20408;-67
2023/06/25 10:07:00;;;;;;;5.75;3.60;;;28.70;99.90;;;;;;4977253;28;20074;-66
2023/06/25 10:09:26;;;;;;;4.20;3.13;;;28.70;99.90;;;;;;4977806;28;20047;-68
2023/06/25 10:11:58;;;;;;;5.13;3.33;;;28.80;99.90;;;;;;4976926;28;20042;-67
2023/06/25 10:14:24;;;;;;;5.40;3.13;;;28.90;99.90;;;;;;4976768;28;20643;-67
2023/06/25 10:16:55;;;;;;;4.55;3.50;;;29.10;99.90;;;;;;4976857;28;20118;-67
2023/06/25 10:19:26;;;;;;;3.47;2.80;;;29.20;99.90;;;;;;4976873;28;20050;-67
2023/06/25 10:22:05;;;;;;;3.92;2.67;;;29.40;99.90;;;;;;4976662;28;20051;-68
2023/06/25 10:24:41;;;;;;;4.82;3.45;;;29.40;99.90;;;;;;4976520;28;20047;-68
2023/06/25 10:27:24;;;;;;;5.00;3.40;;;29.40;99.90;;;;;;4976758;28;20061;-68
2023/06/25 10:29:51;;;;;;;4.50;3.10;;;29.30;99.90;;;;;;4976139;28;20055;-68
2023/06/25 10:32:21;;;;;;;5.95;3.33;;;29.30;99.90;;;;;;4976728;28;20054;-68
2023/06/25 10:35:00;;;;;;;4.30;3.00;;;29.40;99.90;;;;;;4976702;28;20039;-69
2023/06/25 10:37:30;;;;;;;5.60;3.10;;;29.60;99.90;;;;;;4976834;28;20380;-68
2023/06/25 10:40:07;;;;;;;5.28;3.50;;;29.70;99.90;;;;;;4976486;28;20061;-69
2023/06/25 10:42:33;;;;;;;4.70;2.60;;;29.70;99.90;;;;;;4977096;28;20050;-68
2023/06/25 10:45:00;;;;;;;4.43;2.90;;;29.70;99.90;;;;;;4977275;28;20062;-68
2023/06/25 10:47:26;;;;;;;4.00;2.90;;;29.70;99.90;;;;;;4977079;28;20152;-68
2023/06/25 10:49:51;;;;;;;4.03;2.75;;;29.60;99.90;;;;;;4976209;28;20078;-68
2023/06/25 10:52:18;;;;;;;4.45;3.42;;;29.60;99.90;;;;;;4976457;28;20138;-72
2023/06/25 10:54:43;;;;;;;4.68;2.90;;;29.50;99.90;;;;;;4976916;28;20125;-69
2023/06/25 10:57:11;;;;;;;4.40;2.90;;;29.80;99.90;;;;;;4976085;28;20462;-69
2023/06/25 10:59:38;;;;;;;4.03;2.60;;;30.10;99.90;;;;;;4976247;28;20105;-68
2023/06/25 11:02:14;;;;;;;4.20;2.58;;;30.20;99.90;;;;;;4976849;28;20047;-69
2023/06/25 11:04:40;;;;;;;3.33;2.53;;;30.30;99.90;;;;;;4976175;28;20142;-68
2023/06/25 11:07:09;;;;;;;3.78;2.53;;;30.40;99.90;;;;;;4975996;28;20039;-68
2023/06/25 11:09:35;;;;;;;3.47;2.70;;;30.60;99.90;;;;;;4976048;28;20058;-67
2023/06/25 11:12:01;;;;;;;3.72;2.80;;;30.60;99.90;;;;;;4975918;28;20043;-67
2023/06/25 11:14:26;;;;;;;3.20;2.40;;;30.60;99.90;;;;;;4975711;28;20053;-69
2023/06/25 11:16:52;;;;;;;3.65;2.80;;;30.60;99.90;;;;;;4976383;28;20050;-68
2023/06/25 11:19:18;;;;;;;4.53;3.13;;;30.70;99.90;;;;;;4975822;28;20459;-69
2023/06/25 11:21:43;;;;;;;3.40;2.75;;;30.60;99.90;;;;;;4976298;28;20042;-69
2023/06/25 11:24:09;;;;;;;4.60;2.80;;;30.60;99.90;;;;;;4975656;28;20101;-69
2023/06/25 11:26:42;;;;;;;3.88;2.60;;;30.80;99.90;;;;;;4976113;28;20058;-68
2023/06/25 11:29:09;;;;;;;4.00;2.60;;;30.90;99.90;;;;;;4975736;28;20046;-69
2023/06/25 11:31:48;;;;;;;3.97;2.63;;;30.80;99.90;;;;;;4975593;28;20046;-69
2023/06/25 11:34:21;;;;;;;3.17;2.53;;;30.90;99.90;;;;;;4975580;28;20124;-69
2023/06/25 11:36:47;;;;;;;4.03;2.67;;;31.00;99.90;;;;;;4976281;28;20047;-70
2023/06/25 11:39:14;;;;;;;2.97;2.50;;;31.30;99.90;;;;;;4975498;28;20498;-70
2023/06/25 11:41:39;;;;;;;2.80;2.25;;;31.50;99.90;;;;;;4975470;28;20057;-70
2023/06/25 11:44:19;;;;;;;4.10;2.72;;;31.70;99.90;;;;;;4975131;28;20047;-69
2023/06/25 11:46:51;;;;;;;4.30;3.03;;;31.80;99.90;;;;;;4975880;28;20105;-70
2023/06/25 11:49:18;;;;;;;3.53;2.55;;;31.80;99.90;;;;;;4975213;28;20141;-70
2023/06/25 11:51:52;;;;;;;3.28;2.70;;;31.90;99.90;;;;;;4975581;28;20116;-70
2023/06/25 11:54:17;;;;;;;3.50;2.65;;;32.00;99.90;;;;;;4975426;28;20062;-69
2023/06/25 11:56:43;;;;;;;4.18;2.63;;;31.90;99.90;;;;;;4975721;28;20043;-68
2023/06/25 11:59:09;;;;;;;4.22;3.15;;;31.70;99.90;;;;;;4975118;28;20082;-68
2023/06/25 12:01:34;;;;;;;3.60;2.90;;;31.40;99.90;;;;;;4973382;28;20047;-71
2023/06/25 12:04:00;;;;;;;4.97;2.65;;;31.40;99.90;;;;;;4974775;28;20086;-70
2023/06/25 12:06:26;;;;;;;3.80;2.78;;;31.50;99.90;;;;;;4975614;28;20046;-69
2023/06/25 12:08:51;;;;;;;3.63;2.63;;;31.70;99.90;;;;;;4975470;28;20515;-69
2023/06/25 12:11:17;;;;;;;4.47;3.10;;;31.80;99.90;;;;;;4974910;28;20059;-70
2023/06/25 12:13:43;;;;;;;4.35;2.92;;;32.00;99.90;;;;;;4974997;28;20046;-69
2023/06/25 12:16:09;;;;;;;3.80;2.70;;;32.10;99.90;;;;;;4974786;28;20046;-70
2023/06/25 12:18:34;;;;;;;3.35;2.85;;;32.20;99.90;;;;;;4974865;28;20051;-70
2023/06/25 12:21:00;;;;;;;4.50;3.00;;;32.30;99.90;;;;;;4974106;28;20069;-70
2023/06/25 12:23:26;;;;;;;3.60;2.75;;;32.50;99.90;;;;;;4974917;28;20052;-70
2023/06/25 12:25:51;;;;;;;3.47;2.85;;;32.70;99.90;;;;;;4974540;28;20063;-70
2023/06/25 12:28:17;;;;;;;3.42;3.13;;;32.80;99.90;;;;;;4974672;28;20479;-71
2023/06/25 12:30:43;;;;;;;4.88;3.20;;;32.80;99.90;;;;;;4974679;28;20043;-70
2023/06/25 12:33:08;;;;;;;3.45;3.00;;;32.80;99.90;;;;;;4974695;28;20082;-70
2023/06/25 12:35:34;;;;;;;4.72;3.38;;;32.60;99.90;;;;;;4975240;28;20066;-70
2023/06/25 12:38:00;;;;;;;3.75;2.80;;;32.40;99.90;;;;;;4974647;28;20101;-70